Time;durP1;ratioP1;P1;durP2;ratioP2;P2;SDS_P1;SDS_P2;PMS_P1;PMS_P2;Temp;Humidity;BMP_temperature;BMP_pressure;BME280_temperature;BME280_humidity;BME280_pressure;Samples;Min_cycle;Max_cycle;Signal;HPM_P1;HPM_P2
2023/09/26 00:01:04;;;;;;;15.50;5.72;;;;;;;;;;10504694;28;20016;-74
2023/09/26 00:06:17;;;;;;;10.00;6.03;;;;;;;;;;10518516;28;20027;-74
2023/09/26 00:11:17;;;;;;;14.55;5.75;;;;;;;;;;10514882;28;20036;-73
2023/09/26 00:16:18;;;;;;;19.35;6.22;;;;;;;;;;10519727;28;20056;-73
2023/09/26 00:21:18;;;;;;;10.50;5.90;;;;;;;;;;10498927;28;20210;-74
2023/09/26 00:26:19;;;;;;;16.00;6.20;;;;;;;;;;10489400;28;20020;-73
2023/09/26 00:31:19;;;;;;;14.88;6.78;;;;;;;;;;10491874;28;20028;-73
2023/09/26 00:36:19;;;;;;;8.93;5.25;;;;;;;;;;10511319;28;20306;-73
2023/09/26 00:41:20;;;;;;;12.02;5.85;;;;;;;;;;10502705;28;20024;-74
2023/09/26 00:46:20;;;;;;;15.77;6.28;;;;;;;;;;10523371;28;20013;-73
2023/09/26 00:51:21;;;;;;;20.73;6.90;;;;;;;;;;10521374;28;20322;-74
2023/09/26 00:56:22;;;;;;;14.75;6.05;;;;;;;;;;10528924;28;20065;-74
2023/09/26 01:01:24;;;;;;;18.35;7.03;;;;;;;;;;10506111;28;20027;-74
2023/09/26 01:06:24;;;;;;;10.80;5.68;;;;;;;;;;10526241;28;20028;-73
2023/09/26 01:11:25;;;;;;;18.00;6.10;;;;;;;;;;10522258;28;20318;-75
2023/09/26 01:16:25;;;;;;;17.58;5.97;;;;;;;;;;10522859;28;20055;-73
2023/09/26 01:21:26;;;;;;;13.60;6.00;;;;;;;;;;10495336;28;20030;-73
2023/09/26 01:26:33;;;;;;;18.13;6.35;;;;;;;;;;10493087;28;20263;-75
2023/09/26 01:31:34;;;;;;;14.93;6.67;;;;;;;;;;10501081;28;20033;-73
2023/09/26 01:36:34;;;;;;;16.58;6.05;;;;;;;;;;10500553;28;20044;-75
2023/09/26 01:41:35;;;;;;;11.93;6.15;;;;;;;;;;10488590;28;20032;-73
2023/09/26 01:46:35;;;;;;;14.10;5.60;;;;;;;;;;10505157;28;20056;-74
2023/09/26 01:51:35;;;;;;;17.70;6.20;;;;;;;;;;10497322;28;20078;-74
2023/09/26 01:56:35;;;;;;;12.32;5.82;;;;;;;;;;10487389;28;20024;-74
2023/09/26 02:01:36;;;;;;;14.52;6.47;;;;;;;;;;10508991;28;20088;-73
2023/09/26 02:06:36;;;;;;;22.05;6.13;;;;;;;;;;10512559;28;20123;-73
2023/09/26 02:11:36;;;;;;;14.73;6.28;;;;;;;;;;10503420;28;20031;-74
2023/09/26 02:16:37;;;;;;;9.60;5.53;;;;;;;;;;10505500;28;20052;-74
2023/09/26 02:21:37;;;;;;;13.00;5.68;;;;;;;;;;10502699;28;20047;-74
2023/09/26 02:26:37;;;;;;;16.85;6.28;;;;;;;;;;10504623;28;20031;-75
2023/09/26 02:31:38;;;;;;;14.60;5.88;;;;;;;;;;10506018;28;20073;-74
2023/09/26 02:36:38;;;;;;;17.67;6.18;;;;;;;;;;10501852;28;20028;-74
2023/09/26 02:41:38;;;;;;;22.05;6.25;;;;;;;;;;10501971;28;20027;-74
2023/09/26 02:46:38;;;;;;;13.85;6.63;;;;;;;;;;10531757;28;20217;-74
2023/09/26 02:51:39;;;;;;;14.50;6.28;;;;;;;;;;10518174;28;20096;-74
2023/09/26 02:56:39;;;;;;;25.73;5.65;;;;;;;;;;10505994;28;20039;-74
2023/09/26 03:01:40;;;;;;;16.23;5.15;;;;;;;;;;10518611;28;20025;-74
2023/09/26 03:06:40;;;;;;;16.33;5.23;;;;;;;;;;10519903;28;20012;-74
2023/09/26 03:11:41;;;;;;;15.93;4.90;;;;;;;;;;10518617;28;20222;-74
2023/09/26 03:16:41;;;;;;;12.77;4.38;;;;;;;;;;10502240;28;20223;-73
2023/09/26 03:21:42;;;;;;;21.00;4.50;;;;;;;;;;10502538;28;20308;-74
2023/09/26 03:26:42;;;;;;;12.93;4.72;;;;;;;;;;10497088;28;20028;-73
2023/09/26 03:31:44;;;;;;;14.23;4.13;;;;;;;;;;10503622;28;20327;-74
2023/09/26 03:36:44;;;;;;;15.30;3.25;;;;;;;;;;10519962;28;20265;-74
2023/09/26 03:41:45;;;;;;;15.35;3.38;;;;;;;;;;10506648;28;20028;-73
2023/09/26 03:46:45;;;;;;;17.58;8.25;;;;;;;;;;10505139;28;20087;-73
2023/09/26 03:51:45;;;;;;;17.60;4.22;;;;;;;;;;10500176;28;20354;-73
2023/09/26 03:56:45;;;;;;;19.55;4.05;;;;;;;;;;10473096;28;20033;-73
2023/09/26 04:01:47;;;;;;;14.90;3.47;;;;;;;;;;10500788;28;20226;-74
2023/09/26 04:06:47;;;;;;;6.22;3.05;;;;;;;;;;10517965;28;20361;-73
2023/09/26 04:11:48;;;;;;;15.63;3.80;;;;;;;;;;10505856;28;20027;-73
2023/09/26 04:16:48;;;;;;;9.02;4.32;;;;;;;;;;10484521;28;20106;-74
2023/09/26 04:21:49;;;;;;;14.88;4.20;;;;;;;;;;10516398;28;20035;-74
2023/09/26 04:26:49;;;;;;;17.13;4.10;;;;;;;;;;10504486;28;20314;-75
2023/09/26 04:31:49;;;;;;;15.25;4.70;;;;;;;;;;10500160;28;20047;-74
2023/09/26 04:36:49;;;;;;;18.10;4.55;;;;;;;;;;10498722;28;20310;-74
2023/09/26 04:41:50;;;;;;;17.83;4.35;;;;;;;;;;10498519;28;20088;-74
2023/09/26 04:46:50;;;;;;;13.85;4.07;;;;;;;;;;10503502;28;20117;-74
2023/09/26 04:51:51;;;;;;;12.77;3.88;;;;;;;;;;10491396;28;20029;-74
2023/09/26 04:56:51;;;;;;;15.63;4.28;;;;;;;;;;10497736;28;20593;-74
2023/09/26 05:01:51;;;;;;;12.02;5.68;;;;;;;;;;10496480;28;20143;-73
2023/09/26 05:06:51;;;;;;;14.70;4.65;;;;;;;;;;10497151;28;20281;-74
2023/09/26 05:11:52;;;;;;;20.23;5.13;;;;;;;;;;10494330;28;20024;-74
2023/09/26 05:16:52;;;;;;;19.65;4.93;;;;;;;;;;10493274;28;20060;-73
2023/09/26 05:21:53;;;;;;;21.60;5.30;;;;;;;;;;10474212;28;20297;-73
2023/09/26 05:26:53;;;;;;;21.83;4.43;;;;;;;;;;10492879;28;20012;-74
2023/09/26 05:31:53;;;;;;;17.17;4.40;;;;;;;;;;10498600;28;20425;-74
2023/09/26 05:36:53;;;;;;;22.58;4.65;;;;;;;;;;10498053;28;20035;-74
2023/09/26 05:41:54;;;;;;;16.00;4.30;;;;;;;;;;10499373;28;20364;-75
2023/09/26 05:46:54;;;;;;;15.00;4.30;;;;;;;;;;10498637;28;20201;-73
2023/09/26 05:51:54;;;;;;;21.25;4.28;;;;;;;;;;10497780;28;20021;-74
2023/09/26 05:56:55;;;;;;;20.27;4.57;;;;;;;;;;10498350;28;20028;-74
2023/09/26 06:01:55;;;;;;;20.52;4.85;;;;;;;;;;10480804;28;20299;-75
2023/09/26 06:06:55;;;;;;;12.07;4.47;;;;;;;;;;10482465;28;20048;-74
2023/09/26 06:11:56;;;;;;;22.88;5.13;;;;;;;;;;10479836;28;20260;-75
2023/09/26 06:17:05;;;;;;;17.20;4.57;;;;;;;;;;10498645;28;20350;-75
2023/09/26 06:22:06;;;;;;;21.65;4.20;;;;;;;;;;10481270;28;20095;-75
2023/09/26 06:27:07;;;;;;;19.58;4.43;;;;;;;;;;10467321;28;20063;-77
2023/09/26 06:32:07;;;;;;;15.65;4.63;;;;;;;;;;10498472;28;20032;-76
2023/09/26 06:37:08;;;;;;;15.43;4.13;;;;;;;;;;10497170;28;20108;-74
2023/09/26 06:42:08;;;;;;;11.63;3.65;;;;;;;;;;10497751;28;20294;-74
2023/09/26 06:47:08;;;;;;;25.73;3.70;;;;;;;;;;10496978;28;20036;-74
2023/09/26 06:52:08;;;;;;;12.98;3.30;;;;;;;;;;10497188;28;20039;-75
2023/09/26 06:57:09;;;;;;;14.52;4.10;;;;;;;;;;10481488;28;20024;-74
2023/09/26 07:02:10;;;;;;;8.18;3.88;;;;;;;;;;10477957;28;20303;-74
2023/09/26 07:07:10;;;;;;;20.70;4.50;;;;;;;;;;10495852;28;20051;-74
2023/09/26 07:12:10;;;;;;;18.88;3.22;;;;;;;;;;10477778;28;21035;-75
2023/09/26 07:17:10;;;;;;;24.77;4.22;;;;;;;;;;10495858;28;20040;-74
2023/09/26 07:22:11;;;;;;;14.63;3.40;;;;;;;;;;10495321;28;20028;-75
2023/09/26 07:27:11;;;;;;;9.90;3.15;;;;;;;;;;10495236;28;20032;-75
2023/09/26 07:32:11;;;;;;;22.67;3.63;;;;;;;;;;10495179;28;20317;-75
2023/09/26 07:37:12;;;;;;;10.73;3.43;;;;;;;;;;10494578;28;20066;-73
2023/09/26 07:42:12;;;;;;;10.90;3.10;;;;;;;;;;10494896;28;20021;-75
2023/09/26 07:47:12;;;;;;;14.17;3.97;;;;;;;;;;10494244;28;20046;-74
2023/09/26 07:52:13;;;;;;;15.95;4.38;;;;;;;;;;10494487;28;20036;-75
2023/09/26 07:57:13;;;;;;;15.10;3.30;;;;;;;;;;10494251;28;20253;-75
2023/09/26 08:02:13;;;;;;;21.25;3.90;;;;;;;;;;10494744;28;20021;-75
2023/09/26 08:07:14;;;;;;;14.55;3.60;;;;;;;;;;10495057;28;20226;-75
2023/09/26 08:12:14;;;;;;;12.37;2.83;;;;;;;;;;10494221;28;20130;-75
2023/09/26 08:17:15;;;;;;;18.60;4.03;;;;;;;;;;10494097;28;20047;-74
2023/09/26 08:22:16;;;;;;;11.07;2.80;;;;;;;;;;10496574;28;20017;-74
2023/09/26 08:27:16;;;;;;;17.70;3.10;;;;;;;;;;10494301;28;20021;-75
2023/09/26 08:32:16;;;;;;;16.02;3.03;;;;;;;;;;10493763;28;20052;-75
2023/09/26 08:37:17;;;;;;;7.25;2.97;;;;;;;;;;10494231;28;20226;-74
2023/09/26 08:42:27;;;;;;;17.80;4.55;;;;;;;;;;10493248;28;20043;-74
2023/09/26 08:47:28;;;;;;;23.83;3.58;;;;;;;;;;10475711;28;20033;-74
2023/09/26 08:52:28;;;;;;;14.88;3.35;;;;;;;;;;10493429;28;20033;-74
2023/09/26 08:57:30;;;;;;;11.87;2.83;;;;;;;;;;10475414;28;20330;-74
2023/09/26 09:02:31;;;;;;;11.35;2.78;;;;;;;;;;10482685;28;20278;-74
2023/09/26 09:07:32;;;;;;;15.20;3.75;;;;;;;;;;10500101;28;20235;-75
2023/09/26 09:12:34;;;;;;;20.17;3.60;;;;;;;;;;10500468;28;20290;-74
2023/09/26 09:17:43;;;;;;;10.93;3.55;;;;;;;;;;10461298;28;20055;-74
2023/09/26 09:22:46;;;;;;;10.27;2.85;;;;;;;;;;10458660;28;20310;-74
2023/09/26 09:27:46;;;;;;;11.70;3.22;;;;;;;;;;10459035;28;20020;-74
2023/09/26 09:32:46;;;;;;;15.50;2.50;;;;;;;;;;10458677;28;20219;-74
2023/09/26 09:37:47;;;;;;;37.77;25.93;;;;;;;;;;10458711;28;20036;-74
2023/09/26 09:42:48;;;;;;;7.65;2.70;;;;;;;;;;10457890;28;20025;-74
2023/09/26 09:47:49;;;;;;;17.50;3.85;;;;;;;;;;10457725;28;20028;-74
2023/09/26 09:52:51;;;;;;;24.45;3.05;;;;;;;;;;10439951;28;20028;-75
2023/09/26 09:57:51;;;;;;;16.50;2.85;;;;;;;;;;10457649;28;20028;-73
2023/09/26 10:02:52;;;;;;;10.98;1.80;;;;;;;;;;10456918;28;20347;-74
2023/09/26 10:07:54;;;;;;;17.30;2.17;;;;;;;;;;10457315;28;20075;-74
2023/09/26 10:12:54;;;;;;;12.80;2.47;;;;;;;;;;10456925;28;20176;-74
2023/09/26 10:17:55;;;;;;;13.33;3.00;;;;;;;;;;10456316;28;20039;-74
2023/09/26 10:23:11;;;;;;;13.90;2.78;;;;;;;;;;10456262;28;20226;-74
2023/09/26 10:28:11;;;;;;;6.80;2.13;;;;;;;;;;10438751;28;20364;-74
2023/09/26 10:33:12;;;;;;;12.77;2.40;;;;;;;;;;10437946;28;20033;-74
2023/09/26 10:38:18;;;;;;;10.05;2.38;;;;;;;;;;10455564;28;20044;-74
2023/09/26 10:43:18;;;;;;;13.65;3.22;;;;;;;;;;10437676;28;20028;-73
2023/09/26 10:48:20;;;;;;;10.33;2.10;;;;;;;;;;10437627;28;20024;-74
2023/09/26 10:53:20;;;;;;;12.93;2.42;;;;;;;;;;10455083;28;20024;-73
2023/09/26 10:58:22;;;;;;;7.60;1.83;;;;;;;;;;10455255;28;20017;-73
2023/09/26 11:03:23;;;;;;;7.38;2.42;;;;;;;;;;10455025;28;20024;-74
2023/09/26 11:08:24;;;;;;;13.02;2.45;;;;;;;;;;10454634;28;20051;-74
2023/09/26 11:13:24;;;;;;;8.77;3.30;;;;;;;;;;10459400;28;20040;-73
2023/09/26 11:18:24;;;;;;;19.50;3.23;;;;;;;;;;10495648;28;20275;-73
2023/09/26 11:23:34;;;;;;;25.77;5.00;;;;;;;;;;10495071;28;20341;-73
2023/09/26 11:28:35;;;;;;;15.43;3.40;;;;;;;;;;10477416;28;20028;-74
2023/09/26 11:33:37;;;;;;;17.75;2.97;;;;;;;;;;10495456;28;20281;-74
2023/09/26 11:38:47;;;;;;;17.95;3.60;;;;;;;;;;10495200;28;20295;-74
2023/09/26 11:43:51;;;;;;;13.10;3.75;;;;;;;;;;10494749;28;20044;-74
2023/09/26 11:48:51;;;;;;;18.02;4.55;;;;;;;;;;10494292;28;20036;-74
2023/09/26 11:53:52;;;;;;;11.90;3.30;;;;;;;;;;10495734;28;20071;-74
2023/09/26 11:58:52;;;;;;;390.15;350.35;;;;;;;;;;10494740;28;20020;-75
2023/09/26 12:03:52;;;;;;;15.07;3.70;;;;;;;;;;10495047;28;20290;-74
2023/09/26 12:08:53;;;;;;;19.83;3.65;;;;;;;;;;10494895;28;20028;-74
2023/09/26 12:13:53;;;;;;;191.93;138.18;;;;;;;;;;10494852;28;20131;-74
2023/09/26 12:18:53;;;;;;;15.20;3.55;;;;;;;;;;10494164;28;20025;-74
2023/09/26 12:23:54;;;;;;;11.30;3.35;;;;;;;;;;10494613;28;20020;-73
2023/09/26 12:28:57;;;;;;;15.27;3.58;;;;;;;;;;10495275;28;20345;-74
2023/09/26 12:33:58;;;;;;;11.23;3.67;;;;;;;;;;10497866;28;20051;-72
2023/09/26 12:38:59;;;;;;;15.23;3.65;;;;;;;;;;10484210;28;20321;-75
2023/09/26 12:43:59;;;;;;;21.65;4.95;;;;;;;;;;10484413;28;20019;-74
2023/09/26 12:49:03;;;;;;;11.20;3.60;;;;;;;;;;10501642;28;20056;-74
2023/09/26 12:54:03;;;;;;;18.23;4.13;;;;;;;;;;10500868;28;20020;-74
2023/09/26 12:59:06;;;;;;;23.03;4.27;;;;;;;;;;10502035;28;20074;-74
2023/09/26 13:04:07;;;;;;;26.63;4.45;;;;;;;;;;10500877;28;20024;-75
2023/09/26 13:09:09;;;;;;;17.35;3.90;;;;;;;;;;10482952;28;20017;-74
2023/09/26 13:14:10;;;;;;;39.25;7.45;;;;;;;;;;10482552;28;20044;-74
2023/09/26 13:19:10;;;;;;;20.15;4.75;;;;;;;;;;10481684;28;20214;-75
2023/09/26 13:24:11;;;;;;;11.48;4.13;;;;;;;;;;10481674;28;20031;-75
2023/09/26 13:29:11;;;;;;;13.00;4.20;;;;;;;;;;10478130;28;20031;-75
2023/09/26 13:34:14;;;;;;;16.63;4.97;;;;;;;;;;10497231;28;20032;-76
2023/09/26 13:39:15;;;;;;;16.98;4.05;;;;;;;;;;10480746;28;20033;-76
2023/09/26 13:44:15;;;;;;;15.53;4.33;;;;;;;;;;10481100;28;20029;-76
2023/09/26 13:49:15;;;;;;;14.65;4.00;;;;;;;;;;10483222;28;20029;-74
2023/09/26 13:54:16;;;;;;;18.00;4.28;;;;;;;;;;10479708;28;20655;-75
2023/09/26 13:59:16;;;;;;;15.45;3.70;;;;;;;;;;10496962;28;20100;-74
2023/09/26 14:04:17;;;;;;;19.90;4.32;;;;;;;;;;10477120;28;20378;-77
2023/09/26 14:09:17;;;;;;;14.30;3.30;;;;;;;;;;10482487;28;20028;-77
2023/09/26 14:14:17;;;;;;;16.37;5.40;;;;;;;;;;10470186;28;20048;-80
2023/09/26 14:19:18;;;;;;;21.80;2.90;;;;;;;;;;10496010;28;20356;-75
2023/09/26 14:24:18;;;;;;;10.45;3.15;;;;;;;;;;10496255;28;20024;-75
2023/09/26 14:29:19;;;;;;;19.45;4.03;;;;;;;;;;10489179;28;20020;-75
2023/09/26 14:34:22;;;;;;;13.43;4.13;;;;;;;;;;10489810;28;20218;-76
2023/09/26 14:39:23;;;;;;;9.18;3.45;;;;;;;;;;10479482;28;20090;-75
2023/09/26 14:44:23;;;;;;;16.10;4.05;;;;;;;;;;10498196;28;20016;-74
2023/09/26 14:49:25;;;;;;;13.63;3.93;;;;;;;;;;10497576;28;20274;-75
2023/09/26 14:54:25;;;;;;;12.70;4.07;;;;;;;;;;10495900;28;20330;-76
2023/09/26 14:59:26;;;;;;;23.20;4.15;;;;;;;;;;10494849;28;20036;-76
2023/09/26 15:04:26;;;;;;;18.20;4.30;;;;;;;;;;10495318;28;20048;-75
2023/09/26 15:09:26;;;;;;;15.82;4.63;;;;;;;;;;10494536;28;20111;-75
2023/09/26 15:14:26;;;;;;;17.45;4.45;;;;;;;;;;10494858;28;20364;-75
2023/09/26 15:19:27;;;;;;;23.27;5.13;;;;;;;;;;10495406;28;20035;-75
2023/09/26 15:24:27;;;;;;;14.88;4.30;;;;;;;;;;10495144;28;20311;-75
2023/09/26 15:29:27;;;;;;;14.05;4.47;;;;;;;;;;10494179;28;20298;-75
2023/09/26 15:34:27;;;;;;;9.40;4.13;;;;;;;;;;10494258;28;20032;-75
2023/09/26 15:39:28;;;;;;;16.73;3.60;;;;;;;;;;10494349;28;20337;-75
2023/09/26 15:44:41;;;;;;;12.23;4.00;;;;;;;;;;10493806;28;20179;-75
2023/09/26 15:49:42;;;;;;;15.68;3.85;;;;;;;;;;10493762;28;20306;-75
2023/09/26 15:54:42;;;;;;;13.50;4.03;;;;;;;;;;10487682;28;20020;-77
2023/09/26 15:59:43;;;;;;;19.13;4.55;;;;;;;;;;10491223;28;20016;-76
2023/09/26 16:04:44;;;;;;;17.83;4.90;;;;;;;;;;10491425;28;20036;-77
2023/09/26 16:09:44;;;;;;;14.18;3.97;;;;;;;;;;10459439;28;20031;-76
2023/09/26 16:14:45;;;;;;;17.77;3.83;;;;;;;;;;10496617;28;20349;-76
2023/09/26 16:19:45;;;;;;;10.00;3.80;;;;;;;;;;10483441;28;20032;-77
2023/09/26 16:24:45;;;;;;;18.27;3.83;;;;;;;;;;10498449;28;20304;-75
2023/09/26 16:29:45;;;;;;;14.55;3.80;;;;;;;;;;10497928;28;20204;-75
2023/09/26 16:34:46;;;;;;;12.02;3.80;;;;;;;;;;10501445;28;20032;-75
2023/09/26 16:39:51;;;;;;;14.87;4.10;;;;;;;;;;10479003;28;20059;-76
2023/09/26 16:44:51;;;;;;;8.25;3.97;;;;;;;;;;10495550;28;20027;-81
2023/09/26 16:49:52;;;;;;;17.45;4.68;;;;;;;;;;10498444;28;20028;-78
2023/09/26 16:54:55;;;;;;;21.87;4.53;;;;;;;;;;10496484;28;20019;-78
2023/09/26 16:59:55;;;;;;;20.95;4.68;;;;;;;;;;10478890;28;20491;-76
2023/09/26 17:04:55;;;;;;;11.85;3.80;;;;;;;;;;10496923;28;20077;-74
2023/09/26 17:09:55;;;;;;;20.88;4.22;;;;;;;;;;10496558;28;20025;-79
2023/09/26 17:14:56;;;;;;;10.35;3.85;;;;;;;;;;10498405;28;20364;-80
2023/09/26 17:19:57;;;;;;;18.73;5.00;;;;;;;;;;10476744;28;20524;-77
2023/09/26 17:25:01;;;;;;;13.82;4.60;;;;;;;;;;10496719;28;20023;-80
2023/09/26 17:30:10;;;;;;;12.57;4.20;;;;;;;;;;10497920;28;20031;-83
2023/09/26 17:35:13;;;;;;;8.88;4.25;;;;;;;;;;10488454;28;20330;-91
2023/09/26 17:40:13;;;;;;;12.90;4.95;;;;;;;;;;10494005;28;20327;-74
2023/09/26 17:45:14;;;;;;;7.60;4.07;;;;;;;;;;10474524;28;20028;-81
2023/09/26 17:50:15;;;;;;;11.13;3.78;;;;;;;;;;10480245;28;20354;-80
2023/09/26 17:55:16;;;;;;;24.70;5.40;;;;;;;;;;10479063;28;20291;-81
2023/09/26 18:00:19;;;;;;;17.38;4.43;;;;;;;;;;10475665;28;20054;-80
2023/09/26 18:05:26;;;;;;;14.98;4.25;;;;;;;;;;10493158;28;20008;-80
2023/09/26 18:23:15;;;;;;;18.63;7.88;;;;;;;;;;10537668;27;20451;-75
2023/09/26 18:28:17;;;;;;;12.63;4.32;;;;;;;;;;10493174;28;20175;-69
2023/09/26 18:33:17;;;;;;;16.25;5.63;;;;;;;;;;10505708;28;20353;-74
2023/09/26 18:38:18;;;;;;;7.38;4.50;;;;;;;;;;10497768;28;20351;-78
2023/09/26 18:43:19;;;;;;;12.82;4.90;;;;;;;;;;10487493;28;20016;-73
2023/09/26 18:48:20;;;;;;;13.07;4.65;;;;;;;;;;10497830;28;20028;-70
2023/09/26 18:53:20;;;;;;;18.25;4.13;;;;;;;;;;10502453;28;20035;-70
2023/09/26 18:58:20;;;;;;;7.97;4.97;;;;;;;;;;10506014;28;20690;-71
2023/09/26 19:03:21;;;;;;;17.33;5.07;;;;;;;;;;10495439;28;20099;-70
2023/09/26 19:08:21;;;;;;;21.40;4.97;;;;;;;;;;10490094;28;20055;-73
2023/09/26 19:13:21;;;;;;;24.08;4.75;;;;;;;;;;10496035;28;20335;-80
2023/09/26 19:18:22;;;;;;;21.07;5.13;;;;;;;;;;10492937;28;20092;-73
2023/09/26 19:23:22;;;;;;;14.02;4.55;;;;;;;;;;10478540;28;20016;-72
2023/09/26 19:28:22;;;;;;;16.43;4.27;;;;;;;;;;10471217;28;20052;-73
2023/09/26 19:33:23;;;;;;;14.17;4.10;;;;;;;;;;10486437;28;20016;-73
2023/09/26 19:38:23;;;;;;;18.95;5.55;;;;;;;;;;10491086;28;20298;-73
2023/09/26 19:43:24;;;;;;;16.47;5.37;;;;;;;;;;10471979;28;20039;-73
2023/09/26 19:48:27;;;;;;;13.15;4.55;;;;;;;;;;10481655;28;20588;-74
2023/09/26 19:53:28;;;;;;;14.48;4.70;;;;;;;;;;10474520;28;20013;-72
2023/09/26 19:58:29;;;;;;;12.18;4.78;;;;;;;;;;10462345;28;20032;-73
2023/09/26 20:03:29;;;;;;;21.30;5.50;;;;;;;;;;10461166;28;20086;-77
2023/09/26 20:08:29;;;;;;;13.55;4.82;;;;;;;;;;10462052;28;20053;-79
2023/09/26 20:13:30;;;;;;;24.60;7.45;;;;;;;;;;10467289;28;20040;-83
2023/09/26 20:18:30;;;;;;;11.65;4.95;;;;;;;;;;10463848;28;20033;-80
2023/09/26 20:23:30;;;;;;;12.60;4.68;;;;;;;;;;10479987;28;20021;-87
2023/09/26 20:28:30;;;;;;;13.40;4.23;;;;;;;;;;10457964;28;20432;-74
2023/09/26 20:33:31;;;;;;;13.65;4.68;;;;;;;;;;10457781;28;20024;-80
2023/09/26 20:38:31;;;;;;;17.63;4.18;;;;;;;;;;10466357;28;20039;-76
2023/09/26 20:43:32;;;;;;;12.77;4.07;;;;;;;;;;10464990;28;20181;-79
2023/09/26 20:48:32;;;;;;;14.68;5.80;;;;;;;;;;10464737;28;20024;-80
2023/09/26 20:53:33;;;;;;;16.70;4.47;;;;;;;;;;10459528;28;20224;-80
2023/09/26 20:58:33;;;;;;;11.43;3.78;;;;;;;;;;10458962;28;20608;-78
2023/09/26 21:03:34;;;;;;;13.38;5.47;;;;;;;;;;10465917;28;20036;-77
2023/09/26 21:08:34;;;;;;;13.43;4.40;;;;;;;;;;10458393;28;20302;-69
2023/09/26 21:13:34;;;;;;;13.00;4.13;;;;;;;;;;10453862;28;20108;-70
2023/09/26 21:18:35;;;;;;;7.57;4.28;;;;;;;;;;10453133;28;20120;-71
2023/09/26 21:23:35;;;;;;;10.57;3.63;;;;;;;;;;10454187;28;20025;-71
2023/09/26 21:28:36;;;;;;;7.43;3.57;;;;;;;;;;10453531;28;20106;-73
2023/09/26 21:33:37;;;;;;;17.15;4.03;;;;;;;;;;10453533;28;20127;-73
2023/09/26 21:38:37;;;;;;;16.40;3.75;;;;;;;;;;10453377;28;20329;-72
2023/09/26 21:43:37;;;;;;;12.80;3.72;;;;;;;;;;10452963;28;20024;-71
2023/09/26 21:48:38;;;;;;;15.67;4.43;;;;;;;;;;10453014;28;20029;-72
2023/09/26 21:53:38;;;;;;;16.97;4.57;;;;;;;;;;10451381;28;20032;-71
2023/09/26 21:58:38;;;;;;;14.83;4.70;;;;;;;;;;10449055;28;20032;-71
2023/09/26 22:03:39;;;;;;;18.30;7.45;;;;;;;;;;10422296;28;20033;-72
2023/09/26 22:08:39;;;;;;;9.90;4.10;;;;;;;;;;10429508;28;20033;-73
2023/09/26 22:13:39;;;;;;;15.85;4.05;;;;;;;;;;10450438;28;20048;-74
2023/09/26 22:18:40;;;;;;;12.68;3.92;;;;;;;;;;10453288;28;20226;-72
2023/09/26 22:23:41;;;;;;;16.20;5.23;;;;;;;;;;10453303;28;20241;-72
2023/09/26 22:28:42;;;;;;;11.18;3.67;;;;;;;;;;10453386;28;20083;-72
2023/09/26 22:33:42;;;;;;;8.70;3.83;;;;;;;;;;10453532;28;20344;-71
2023/09/26 22:38:42;;;;;;;13.32;3.67;;;;;;;;;;10452836;28;20314;-71
2023/09/26 22:43:43;;;;;;;15.15;3.88;;;;;;;;;;10453269;28;20051;-73
2023/09/26 22:48:43;;;;;;;15.45;4.68;;;;;;;;;;10468561;28;20222;-73
2023/09/26 22:53:43;;;;;;;21.30;5.47;;;;;;;;;;10468149;28;20032;-73
2023/09/26 22:58:43;;;;;;;10.38;4.15;;;;;;;;;;10458569;28;20029;-72
2023/09/26 23:03:44;;;;;;;11.27;4.10;;;;;;;;;;10475960;28;20021;-73
2023/09/26 23:08:44;;;;;;;14.30;4.33;;;;;;;;;;10460264;28;20037;-72
2023/09/26 23:13:44;;;;;;;9.23;4.30;;;;;;;;;;10459886;28;20055;-72
2023/09/26 23:18:48;;;;;;;8.05;4.13;;;;;;;;;;10459673;28;20052;-73
2023/09/26 23:23:48;;;;;;;14.45;4.22;;;;;;;;;;10470969;28;20333;-72
2023/09/26 23:28:48;;;;;;;13.77;4.40;;;;;;;;;;10459559;28;20028;-72
2023/09/26 23:33:50;;;;;;;13.80;3.78;;;;;;;;;;10474313;28;20032;-72
2023/09/26 23:38:52;;;;;;;14.82;4.63;;;;;;;;;;10459356;28;20025;-72
2023/09/26 23:43:52;;;;;;;11.73;3.67;;;;;;;;;;10459242;28;20024;-73
2023/09/26 23:48:52;;;;;;;7.60;3.60;;;;;;;;;;10458517;28;20218;-72
2023/09/26 23:53:56;;;;;;;10.68;4.47;;;;;;;;;;10474118;28;20048;-72
2023/09/26 23:58:56;;;;;;;12.20;4.20;;;;;;;;;;10458176;28;20035;-72
